Flight Track Log - Related Links

Times and Time Zones

All times are in EDT time to prevent confusion due to time zone crossing. See the PDT4207 flight status page for this flight to view local times or setup timezone preferences in your user account.

Time Position Orientation Groundspeed Altitude Reporting Facility
EDT Latitude Longitude Course Direction KTS MPH feet Rate Location/Type
Thu 09:29:13 PM 39.9000 -75.2333 300° West 110 127 700  Level Philadelphia TRACON
Thu 09:30:20 PM 39.9167 -75.2833 294° West 110 127 2,500 1,559 Climbing Philadelphia TRACON
Thu 09:31:20 PM 39.9167 -75.3167 270° West 110 127 4,000 1,350 Climbing Philadelphia TRACON
Thu 09:32:00 PM 40.1494 -75.3258 311° West  Level Estimated
Thu 09:32:20 PM 39.9333 -75.3500 303° West 114 131 5,200  Level Philadelphia TRACON
Thu 09:33:00 PM 40.1855 -75.4061 300° West  Level FlightAware Approximate
Thu 09:33:14 PM 39.9500 -75.3833 303° West 136 157 6,400  Level Philadelphia TRACON
Thu 09:34:00 PM 40.2215 -75.4865 300° West  Level FlightAware Approximate
Thu 09:34:14 PM 39.9667 -75.4167 303° West 143 165 7,400  Level Philadelphia TRACON
Thu 09:35:08 PM 40.0167 -75.4333 346° North 155 178 8,300 1,020 Climbing Philadelphia TRACON
Thu 09:35:54 PM 40.0394 -75.4533 326° Northwest 153 176 9,100 962 Climbing New York Center
Thu 09:36:54 PM 40.0717 -75.4800 328° Northwest 173 199 10,000 950 Climbing New York Center
Thu 09:37:54 PM 40.1164 -75.5100 333° Northwest 173 199 11,000 950 Climbing New York Center
Thu 09:38:54 PM 40.1633 -75.5294 342° North 173 199 11,900 500 Climbing New York Center
Thu 09:39:54 PM 40.2169 -75.5494 344° North 181 208 12,000 50 Climbing New York Center
Thu 09:40:54 PM 40.2542 -75.6067 310° West 192 221 12,000  Level New York Center
Thu 09:41:54 PM 40.2831 -75.6656 303° West 213 245 12,000  Level New York Center
Thu 09:42:54 PM 40.3286 -75.7206 317° Northwest 219 252 12,000  Level New York Center
Thu 09:43:54 PM 40.3717 -75.7864 311° West 219 252 12,000 350 Level New York Center
Thu 09:44:54 PM 40.4042 -75.8514 303° West 219 252 12,700 950 Climbing New York Center
Thu 09:45:54 PM 40.4375 -75.9031 310° West 205 236 13,900 650 Climbing New York Center
Thu 09:46:54 PM 40.4792 -75.9525 318° Northwest 192 221 14,000 50 Climbing New York Center
Thu 09:47:54 PM 40.5100 -76.0067 307° West 202 232 14,000  Level New York Center
Thu 09:48:54 PM 40.5572 -76.0731 313° West 221 254 14,000  Level New York Center
Thu 09:49:54 PM 40.6217 -76.0753 359° North 211 243 14,000  Level New York Center
Thu 09:50:54 PM 40.6858 -76.0831 355° North 222 255 14,000  Level New York Center
Thu 09:51:54 PM 40.7461 -76.0906 355° North 232 267 14,000  Level New York Center
Thu 09:52:54 PM 40.8106 -76.0928 359° North 232 267 14,000  Level New York Center
Thu 09:53:54 PM 40.8836 -76.0903 North 232 267 14,000  Level New York Center
Thu 09:54:54 PM 40.9519 -76.0956 357° North 237 273 14,000 50 Level New York Center
Thu 09:55:54 PM 41.0186 -76.0953 360° North 237 273 14,100 50 Climbing New York Center
Thu 09:56:54 PM 41.0750 -76.0942 North 232 267 14,100  Level New York Center
Thu 09:57:54 PM 41.1417 -76.0967 358° North 232 267 14,100  Level New York Center
Thu 09:58:54 PM 41.2119 -76.1050 355° North 232 267 14,100  Level New York Center
Thu 09:59:54 PM 41.2767 -76.1019 North 232 267 14,100  Level New York Center
Thu 10:00:54 PM 41.3411 -76.1042 359° North 232 267 14,100  Level New York Center
Thu 10:01:54 PM 41.3994 -76.1086 357° North 232 267 14,100  Level New York Center
Thu 10:02:54 PM 41.4678 -76.1142 357° North 232 267 14,100  Level New York Center
Thu 10:03:54 PM 41.5389 -76.1117 North 232 267 14,100 -400 Level New York Center
Thu 10:04:54 PM 41.6039 -76.1000 North 232 267 13,300 -1,000 Descending New York Center
Thu 10:05:54 PM 41.6753 -76.0836 10° North 242 278 12,100 -1,200 Descending New York Center
Thu 10:06:54 PM 41.7403 -76.0775 North 258 297 10,900 -1,200 Descending New York Center
Thu 10:07:54 PM 41.8114 -76.0667 North 258 297 9,700 -950 Descending New York Center
Thu 10:08:54 PM 41.8833 -76.0444 13° North 246 283 9,000 -750 Descending New York Center
Thu 10:09:54 PM 41.9486 -76.0300 North 240 276 8,200 -1,150 Descending New York Center
Thu 10:10:54 PM 42.0156 -76.0189 North 241 277 6,700 -1,700 Descending New York Center
Thu 10:11:54 PM 42.0683 -76.0033 12° North 232 267 4,800 -1,600 Descending New York Center
Thu 10:12:54 PM 42.1119 -75.9592 37° Northeast 217 250 3,500 -950 Descending New York Center
Thu 10:13:54 PM 42.1425 -75.9281 37° Northeast 168 193 2,900 -600 Descending New York Center
Thu 10:14:54 PM 42.1667 -75.9467 330° Northwest 106 122 2,300 -400 Descending New York Center
Thu 10:15:54 PM 42.1978 -75.9492 357° North 100 115 2,100 -200 Descending New York Center

Login

Don't have an account? Register now (free) for customized features, flight alerts, and more!